createdAt,value
2023-01-13T00:01:28.955Z,0.50
2023-01-13T00:03:56.372Z,0.35
2023-01-13T00:06:29.162Z,0.30
2023-01-13T00:08:56.082Z,0.30
2023-01-13T00:11:23.260Z,0.50
2023-01-13T00:13:50.348Z,0.28
2023-01-13T00:16:18.506Z,0.30
2023-01-13T00:18:46.737Z,0.35
2023-01-13T00:21:19.379Z,0.30
2023-01-13T00:23:46.429Z,0.40
2023-01-13T00:26:18.855Z,0.47
2023-01-13T00:28:45.943Z,0.30
2023-01-13T00:31:18.287Z,0.30
2023-01-13T00:33:45.276Z,0.25
2023-01-13T00:36:14.366Z,0.47
2023-01-13T00:38:43.046Z,0.40
2023-01-13T00:41:12.459Z,0.40
2023-01-13T00:43:39.440Z,0.30
2023-01-13T00:46:08.225Z,0.50
2023-01-13T00:48:35.618Z,0.50
2023-01-13T00:51:21.726Z,0.30
2023-01-13T00:53:51.054Z,0.30
2023-01-13T00:59:06.385Z,0.50
2023-01-13T01:01:33.330Z,0.30
2023-01-13T01:04:00.278Z,0.20
2023-01-13T01:06:28.043Z,0.30
2023-01-13T01:08:55.831Z,0.30
2023-01-13T01:11:28.237Z,0.40
2023-01-13T01:13:57.321Z,0.30
2023-01-13T01:16:25.791Z,0.30
2023-01-13T01:18:53.877Z,0.50
2023-01-13T01:21:22.198Z,0.55
2023-01-13T01:23:48.833Z,0.30
2023-01-13T01:26:19.419Z,0.57
2023-01-13T01:28:46.904Z,0.20
2023-01-13T01:31:25.360Z,0.30
2023-01-13T01:33:54.035Z,0.43
2023-01-13T01:36:23.159Z,0.30
2023-01-13T01:38:50.447Z,0.45
2023-01-13T01:41:21.394Z,0.30
2023-01-13T01:44:00.218Z,0.30
2023-01-13T01:46:32.674Z,0.20
2023-01-13T01:49:24.801Z,0.30
2023-01-13T01:51:57.403Z,0.30
2023-01-13T01:54:43.567Z,0.40
2023-01-13T01:57:15.935Z,0.40
2023-01-13T01:59:43.909Z,0.30
2023-01-13T02:02:11.390Z,0.30
2023-01-13T02:04:41.206Z,0.50
2023-01-13T02:07:08.517Z,0.40
2023-01-13T02:09:36.502Z,0.40
2023-01-13T02:12:21.744Z,0.40
2023-01-13T02:14:48.539Z,0.30
2023-01-13T02:17:21.246Z,0.32
2023-01-13T02:20:28.018Z,0.20
2023-01-13T02:23:47.691Z,0.47
2023-01-13T02:26:39.252Z,0.40
2023-01-13T02:29:52.972Z,0.40
2023-01-13T02:32:32.224Z,0.30
2023-01-13T02:35:17.832Z,0.20
2023-01-13T02:37:45.227Z,0.50
2023-01-13T02:40:38.022Z,0.40
2023-01-13T02:43:33.499Z,0.50
2023-01-13T02:46:14.643Z,0.35
2023-01-13T02:48:45.304Z,0.25
2023-01-13T02:51:19.144Z,0.40
2023-01-13T02:54:21.731Z,0.40
2023-01-13T02:56:51.169Z,0.50
2023-01-13T03:01:46.873Z,0.40
2023-01-13T03:04:53.338Z,0.30
2023-01-13T03:07:30.485Z,0.50
2023-01-13T03:10:20.106Z,0.30
2023-01-13T03:12:56.534Z,0.40
2023-01-13T03:15:40.373Z,0.60
2023-01-13T03:18:19.619Z,0.30
2023-01-13T03:20:58.614Z,0.50
2023-01-13T03:23:33.228Z,0.40
2023-01-13T03:26:16.412Z,0.52
2023-01-13T03:28:49.621Z,0.57
2023-01-13T03:31:24.584Z,0.43
2023-01-13T03:33:59.706Z,0.30
2023-01-13T03:36:28.978Z,0.50
2023-01-13T03:39:04.115Z,0.63
2023-01-13T03:42:03.975Z,0.28
2023-01-13T03:44:35.749Z,0.60
2023-01-13T03:47:21.088Z,0.70
2023-01-13T03:50:16.337Z,0.40
2023-01-13T03:52:51.034Z,0.40
2023-01-13T03:55:22.674Z,0.45
2023-01-13T03:57:56.818Z,0.40
2023-01-13T04:00:28.420Z,0.30
2023-01-13T04:03:05.188Z,0.60
2023-01-13T04:05:36.391Z,0.50
2023-01-13T04:08:15.717Z,0.70
2023-01-13T04:13:21.937Z,0.50
2023-01-13T04:15:49.969Z,0.63
2023-01-13T04:18:18.700Z,0.50
2023-01-13T04:20:48.001Z,0.57
2023-01-13T04:25:42.519Z,0.75
2023-01-13T04:28:10.041Z,0.30
2023-01-13T04:30:37.790Z,0.60
2023-01-13T04:33:05.276Z,0.50
2023-01-13T04:35:33.562Z,0.40
2023-01-13T04:38:11.494Z,0.60
2023-01-13T04:40:39.059Z,0.60
2023-01-13T04:43:06.258Z,0.60
2023-01-13T04:45:33.387Z,0.50
2023-01-13T04:48:00.586Z,0.30
2023-01-13T04:50:27.915Z,0.75
2023-01-13T04:52:55.385Z,0.50
2023-01-13T04:55:25.788Z,0.43
2023-01-13T04:57:52.719Z,0.80
2023-01-13T05:00:21.967Z,0.70
2023-01-13T05:02:51.573Z,0.85
2023-01-13T05:05:18.634Z,0.93
2023-01-13T05:07:48.850Z,0.90
2023-01-13T05:10:16.003Z,0.95
2023-01-13T05:13:01.182Z,0.77
2023-01-13T05:15:46.412Z,0.60
2023-01-13T05:18:13.362Z,0.88
2023-01-13T05:20:40.372Z,0.50
2023-01-13T05:23:30.161Z,0.80
2023-01-13T05:25:56.866Z,0.65
2023-01-13T05:28:24.583Z,0.50
2023-01-13T05:30:52.417Z,0.80
2023-01-13T05:33:23.201Z,0.63
2023-01-13T05:35:50.087Z,0.80
2023-01-13T05:38:18.088Z,0.75
2023-01-13T05:41:03.644Z,0.75
2023-01-13T05:43:30.668Z,1.00
2023-01-13T05:46:08.242Z,0.80
2023-01-13T05:48:40.295Z,0.80
2023-01-13T05:51:09.537Z,0.70
2023-01-13T05:53:36.478Z,0.70
2023-01-13T05:56:07.324Z,0.90
2023-01-13T05:58:34.897Z,0.82
2023-01-13T06:01:05.484Z,0.70
2023-01-13T06:03:32.172Z,0.70
2023-01-13T06:06:01.689Z,0.77
2023-01-13T06:08:28.672Z,0.95
2023-01-13T06:10:55.518Z,0.57
2023-01-13T06:13:22.731Z,0.80
2023-01-13T06:15:49.432Z,0.60
2023-01-13T06:18:16.267Z,0.50
2023-01-13T06:20:42.925Z,0.65
2023-01-13T06:23:11.660Z,0.70
2023-01-13T06:25:50.607Z,0.70
2023-01-13T06:28:17.340Z,0.60
2023-01-13T06:30:49.220Z,0.80
2023-01-13T06:33:26.914Z,0.90
2023-01-13T06:35:58.935Z,0.60
2023-01-13T06:38:29.166Z,0.90
2023-01-13T06:40:56.641Z,0.68
2023-01-13T06:43:23.769Z,0.95
2023-01-13T06:45:55.622Z,0.80
2023-01-13T06:48:30.015Z,0.95
2023-01-13T06:50:57.272Z,0.85
2023-01-13T06:53:24.405Z,0.93
2023-01-13T06:55:51.327Z,0.82
2023-01-13T06:58:18.192Z,0.77
2023-01-13T07:00:44.900Z,1.08
2023-01-13T07:03:16.271Z,0.80
2023-01-13T07:05:50.831Z,0.77
2023-01-13T07:08:17.814Z,0.90
2023-01-13T07:10:44.454Z,1.23
2023-01-13T07:13:29.917Z,0.70
2023-01-13T07:15:59.171Z,0.93
2023-01-13T07:18:27.737Z,1.20
2023-01-13T07:21:03.387Z,0.70
2023-01-13T07:23:32.747Z,0.73
2023-01-13T07:28:27.601Z,0.75
2023-01-13T07:30:54.436Z,0.85
2023-01-13T07:33:21.600Z,0.85
2023-01-13T07:35:49.126Z,0.90
2023-01-13T07:38:16.260Z,1.10
2023-01-13T07:40:43.083Z,0.98
2023-01-13T07:43:31.086Z,1.05
2023-01-13T07:46:07.150Z,0.80
2023-01-13T07:48:34.880Z,0.82
2023-01-13T07:51:03.307Z,1.20
2023-01-13T07:53:30.182Z,1.10
2023-01-13T07:55:58.322Z,1.10
2023-01-13T07:58:26.514Z,1.08
2023-01-13T08:00:53.954Z,1.02
2023-01-13T08:03:21.240Z,1.05
2023-01-13T08:05:48.404Z,1.40
2023-01-13T08:08:15.836Z,1.20
2023-01-13T08:10:42.550Z,1.40
2023-01-13T08:13:17.597Z,1.60
2023-01-13T08:15:45.152Z,1.70
2023-01-13T08:18:12.405Z,1.75
2023-01-13T08:20:39.271Z,1.80
2023-01-13T08:23:07.353Z,2.17
2023-01-13T08:25:36.458Z,1.80
2023-01-13T08:28:03.657Z,1.85
2023-01-13T08:30:30.578Z,1.80
2023-01-13T08:32:57.468Z,2.08
2023-01-13T08:35:24.520Z,1.77
2023-01-13T08:37:51.770Z,2.03
2023-01-13T08:40:20.792Z,1.42
2023-01-13T08:42:48.691Z,1.88
2023-01-13T08:45:15.662Z,2.15
2023-01-13T08:47:42.690Z,1.67
2023-01-13T08:50:10.579Z,1.45
2023-01-13T08:52:37.494Z,1.70
2023-01-13T08:55:04.490Z,2.17
2023-01-13T08:57:31.200Z,1.60
2023-01-13T08:59:57.908Z,1.95
2023-01-13T09:02:26.129Z,1.23
2023-01-13T09:04:53.977Z,1.42
2023-01-13T09:07:21.483Z,1.70
2023-01-13T09:09:48.386Z,1.60
2023-01-13T09:12:34.787Z,1.40
2023-01-13T09:15:02.095Z,1.45
2023-01-13T09:17:29.011Z,1.50
2023-01-13T09:19:55.772Z,1.63
2023-01-13T09:22:26.925Z,1.83
2023-01-13T09:24:55.109Z,1.35
2023-01-13T09:27:23.613Z,1.63
2023-01-13T09:29:50.470Z,1.60
2023-01-13T09:32:17.136Z,1.77
2023-01-13T09:35:02.315Z,1.70
2023-01-13T09:37:35.348Z,1.33
2023-01-13T09:40:03.993Z,1.90
2023-01-13T09:43:12.399Z,1.57
2023-01-13T09:45:49.725Z,1.50
2023-01-13T09:48:24.705Z,1.33
2023-01-13T09:50:58.625Z,1.40
2023-01-13T09:53:39.974Z,1.30
2023-01-13T09:56:11.044Z,1.63
2023-01-13T09:58:37.853Z,1.17
2023-01-13T10:01:08.649Z,1.40
2023-01-13T10:03:38.089Z,1.40
2023-01-13T10:06:10.980Z,1.40
2023-01-13T10:08:45.211Z,1.50
2023-01-13T10:11:38.917Z,1.40
2023-01-13T10:14:27.379Z,1.42
2023-01-13T10:17:28.072Z,1.23
2023-01-13T10:20:17.882Z,1.42
2023-01-13T10:22:50.596Z,1.33
2023-01-13T10:25:38.993Z,1.60
2023-01-13T10:28:11.325Z,1.50
2023-01-13T10:30:44.097Z,1.67
2023-01-13T10:33:17.545Z,1.80
2023-01-13T10:36:03.947Z,1.40
2023-01-13T10:38:48.560Z,1.77
2023-01-13T10:41:15.243Z,1.55
2023-01-13T10:44:04.453Z,1.75
2023-01-13T10:47:02.531Z,1.70
2023-01-13T10:49:32.952Z,1.45
2023-01-13T10:52:02.070Z,1.80
2023-01-13T10:54:29.503Z,1.50
2023-01-13T10:57:36.237Z,1.60
2023-01-13T11:00:05.368Z,1.70
2023-01-13T11:02:35.869Z,1.80
2023-01-13T11:05:16.149Z,1.70
2023-01-13T11:07:52.651Z,1.60
2023-01-13T11:10:23.393Z,1.23
2023-01-13T11:13:14.980Z,1.33
2023-01-13T11:16:16.581Z,1.38
2023-01-13T11:19:14.374Z,1.48
2023-01-13T11:21:56.169Z,1.42
2023-01-13T11:24:36.351Z,1.42
2023-01-13T11:27:17.725Z,1.27
2023-01-13T11:29:59.256Z,1.55
2023-01-13T11:32:31.172Z,1.67
2023-01-13T11:35:03.107Z,1.40
2023-01-13T11:37:40.055Z,1.63
2023-01-13T11:40:25.631Z,1.40
2023-01-13T11:43:03.851Z,1.23
2023-01-13T11:45:55.257Z,1.40
2023-01-13T11:48:27.088Z,1.33
2023-01-13T11:51:16.109Z,1.35
2023-01-13T11:54:16.353Z,1.67
2023-01-13T11:57:10.677Z,1.70
2023-01-13T12:00:09.437Z,1.98
2023-01-13T12:02:48.371Z,1.67
2023-01-13T12:05:23.891Z,1.75
2023-01-13T12:08:20.326Z,1.67
2023-01-13T12:10:58.666Z,1.75
2023-01-13T12:13:46.905Z,1.80
2023-01-13T12:16:25.436Z,1.55
2023-01-13T12:19:19.497Z,1.80
2023-01-13T12:21:57.877Z,1.63
2023-01-13T12:24:39.708Z,1.80
2023-01-13T12:27:15.999Z,1.75
2023-01-13T12:29:44.778Z,1.95
2023-01-13T12:32:21.312Z,2.10
2023-01-13T12:35:11.475Z,2.25
2023-01-13T12:38:01.587Z,2.45
2023-01-13T12:41:15.521Z,3.17
2023-01-13T12:44:06.385Z,2.60
2023-01-13T12:46:34.602Z,2.60
2023-01-13T12:49:01.416Z,3.00
2023-01-13T12:51:57.247Z,2.95
2023-01-13T12:54:45.077Z,3.10
2023-01-13T12:57:21.548Z,3.08
2023-01-13T13:00:03.013Z,3.63
2023-01-13T13:02:34.481Z,3.28
2023-01-13T13:05:24.218Z,3.63
2023-01-13T13:08:25.826Z,3.42
2023-01-13T13:11:02.766Z,3.28
2023-01-13T13:13:48.496Z,3.38
2023-01-13T13:16:27.413Z,3.60
2023-01-13T13:19:20.253Z,3.50
2023-01-13T13:22:16.420Z,3.40
2023-01-13T13:25:03.043Z,2.72
2023-01-13T13:27:40.237Z,3.28
2023-01-13T13:30:30.399Z,2.75
2023-01-13T13:33:15.840Z,2.80
2023-01-13T13:36:13.319Z,2.85
2023-01-13T13:39:31.036Z,3.30
2023-01-13T13:42:30.330Z,3.08
2023-01-13T13:45:18.291Z,3.45
2023-01-13T13:47:45.083Z,3.08
2023-01-13T13:50:20.434Z,2.50
2023-01-13T13:53:05.292Z,3.30
2023-01-13T13:55:32.890Z,2.65
2023-01-13T13:58:01.636Z,2.88
2023-01-13T14:00:32.034Z,2.25
2023-01-13T14:03:21.816Z,2.78
2023-01-13T14:05:59.374Z,2.80
2023-01-13T14:08:28.661Z,2.10
2023-01-13T14:13:27.794Z,2.15
2023-01-13T14:16:01.945Z,2.50
2023-01-13T14:18:32.899Z,2.63
2023-01-13T14:21:05.688Z,2.67
2023-01-13T14:23:34.147Z,2.63
2023-01-13T14:26:06.941Z,2.20
2023-01-13T14:28:40.860Z,2.30
2023-01-13T14:31:09.582Z,2.20
2023-01-13T14:33:41.842Z,1.90
2023-01-13T14:36:14.772Z,2.47
2023-01-13T14:38:43.324Z,1.95
2023-01-13T14:41:28.339Z,1.80
2023-01-13T14:43:59.232Z,2.25
2023-01-13T14:46:43.696Z,2.60
2023-01-13T14:49:31.079Z,2.22
2023-01-13T14:52:28.109Z,2.10
2023-01-13T14:55:15.098Z,2.33
2023-01-13T14:57:41.894Z,2.17
2023-01-13T15:00:14.129Z,2.30
2023-01-13T15:02:47.769Z,1.88
2023-01-13T15:05:36.085Z,2.00
2023-01-13T15:08:12.193Z,2.00
2023-01-13T15:10:44.953Z,1.90
2023-01-13T15:13:24.502Z,1.83
2023-01-13T15:15:55.836Z,1.90
2023-01-13T15:18:22.603Z,1.63
2023-01-13T15:20:50.917Z,2.08
2023-01-13T15:23:19.334Z,1.92
2023-01-13T15:25:47.596Z,1.70
2023-01-13T15:28:19.557Z,2.17
2023-01-13T15:30:47.170Z,1.80
2023-01-13T15:33:14.976Z,1.73
2023-01-13T15:35:47.317Z,1.95
2023-01-13T15:38:18.950Z,1.70
2023-01-13T15:40:46.540Z,1.75
2023-01-13T15:43:40.295Z,1.48
2023-01-13T15:46:38.505Z,1.92
2023-01-13T15:49:13.420Z,1.80
2023-01-13T15:51:40.366Z,1.80
2023-01-13T15:54:24.553Z,1.40
2023-01-13T15:56:52.417Z,1.75
2023-01-13T15:59:24.014Z,1.50
2023-01-13T16:01:50.770Z,1.42
2023-01-13T16:04:17.574Z,1.83
2023-01-13T16:06:44.724Z,1.80
2023-01-13T16:09:14.279Z,1.60
2023-01-13T16:11:41.202Z,1.35
2023-01-13T16:14:08.079Z,1.50
2023-01-13T16:16:35.740Z,1.67
2023-01-13T16:19:02.666Z,1.48
2023-01-13T16:21:29.422Z,1.70
2023-01-13T16:23:56.135Z,1.25
2023-01-13T16:26:25.855Z,1.40
2023-01-13T16:28:54.874Z,1.50
2023-01-13T16:31:31.915Z,1.63
2023-01-13T16:34:00.486Z,1.42
2023-01-13T16:36:29.168Z,1.30
2023-01-13T16:38:57.259Z,1.33
2023-01-13T16:41:25.041Z,1.40
2023-01-13T16:44:10.518Z,2.15
2023-01-13T16:46:37.204Z,1.30
2023-01-13T16:49:06.253Z,1.40
2023-01-13T16:51:33.752Z,1.60
2023-01-13T16:54:00.580Z,1.42
2023-01-13T16:56:28.510Z,1.27
2023-01-13T16:58:57.861Z,1.40
2023-01-13T17:03:53.968Z,1.48
2023-01-13T17:06:25.503Z,1.58
2023-01-13T17:08:57.475Z,1.50
2023-01-13T17:11:24.147Z,1.50
2023-01-13T17:13:50.948Z,1.20
2023-01-13T17:16:22.708Z,1.35
2023-01-13T17:18:50.463Z,1.50
2023-01-13T17:21:17.578Z,1.25
2023-01-13T17:23:44.769Z,1.50
2023-01-13T17:26:37.127Z,1.40
2023-01-13T17:29:07.180Z,1.27
2023-01-13T17:31:35.683Z,1.55
2023-01-13T17:34:04.117Z,1.40
2023-01-13T17:36:31.069Z,1.50
2023-01-13T17:38:58.294Z,1.50
2023-01-13T17:41:25.977Z,1.20
2023-01-13T17:43:53.608Z,1.25
2023-01-13T17:46:24.730Z,1.38
2023-01-13T17:48:53.621Z,1.35
2023-01-13T17:51:22.680Z,1.30
2023-01-13T17:53:49.665Z,1.67
2023-01-13T17:56:17.255Z,1.40
2023-01-13T17:58:45.483Z,1.30
2023-01-13T18:01:18.605Z,1.58
2023-01-13T18:03:46.002Z,1.55
2023-01-13T18:06:23.613Z,1.30
2023-01-13T18:08:51.651Z,1.63
2023-01-13T18:11:21.332Z,1.30
2023-01-13T18:13:50.125Z,1.60
2023-01-13T18:16:19.218Z,1.42
2023-01-13T18:18:48.166Z,1.38
2023-01-13T18:21:41.389Z,1.40
2023-01-13T18:24:32.091Z,1.33
2023-01-13T18:27:18.234Z,1.40
2023-01-13T18:29:46.092Z,1.25
2023-01-13T18:32:13.688Z,1.52
2023-01-13T18:34:40.822Z,1.58
2023-01-13T18:37:09.476Z,1.52
2023-01-13T18:39:37.459Z,1.88
2023-01-13T18:42:24.598Z,1.83
2023-01-13T18:44:52.568Z,1.10
2023-01-13T18:47:19.286Z,1.52
2023-01-13T18:49:46.636Z,1.20
2023-01-13T18:52:13.737Z,1.58
2023-01-13T18:54:40.348Z,1.75
2023-01-13T18:57:07.336Z,1.33
2023-01-13T18:59:34.734Z,1.48
2023-01-13T19:02:02.934Z,1.48
2023-01-13T19:04:29.832Z,1.45
2023-01-13T19:07:00.916Z,1.40
2023-01-13T19:09:29.187Z,1.27
2023-01-13T19:11:57.321Z,1.83
2023-01-13T19:14:34.263Z,1.75
2023-01-13T19:17:09.819Z,1.40
2023-01-13T19:19:44.654Z,1.30
2023-01-13T19:22:13.898Z,1.30
2023-01-13T19:24:43.679Z,1.55
2023-01-13T19:27:12.173Z,1.58
2023-01-13T19:29:51.601Z,1.67
2023-01-13T19:32:21.890Z,1.25
2023-01-13T19:34:51.228Z,1.40
2023-01-13T19:37:19.477Z,1.50
2023-01-13T19:39:46.077Z,1.55
2023-01-13T19:42:32.277Z,1.65
2023-01-13T19:45:17.227Z,1.40
2023-01-13T19:47:45.514Z,1.25
2023-01-13T19:50:13.630Z,1.40
2023-01-13T19:52:41.864Z,1.58
2023-01-13T19:55:09.842Z,1.98
2023-01-13T19:57:38.251Z,1.90
2023-01-13T20:00:07.995Z,1.63
2023-01-13T20:02:49.075Z,1.60
2023-01-13T20:05:25.931Z,1.92
2023-01-13T20:07:53.036Z,1.73
2023-01-13T20:10:21.895Z,1.70
2023-01-13T20:12:48.804Z,1.80
2023-01-13T20:15:15.958Z,1.48
2023-01-13T20:17:42.788Z,1.92
2023-01-13T20:20:10.729Z,1.70
2023-01-13T20:22:38.693Z,1.65
2023-01-13T20:25:06.326Z,1.90
2023-01-13T20:27:33.248Z,1.77
2023-01-13T20:30:00.106Z,1.75
2023-01-13T20:32:26.901Z,1.90
2023-01-13T20:34:53.562Z,1.85
2023-01-13T20:37:20.151Z,1.90
2023-01-13T20:39:47.501Z,1.75
2023-01-13T20:42:29.435Z,1.60
2023-01-13T20:44:57.671Z,1.83
2023-01-13T20:47:25.845Z,1.60
2023-01-13T20:49:54.926Z,1.42
2023-01-13T20:52:21.660Z,1.58
2023-01-13T20:54:48.333Z,1.65
2023-01-13T20:57:14.950Z,1.70
2023-01-13T20:59:41.845Z,1.83
2023-01-13T21:02:13.240Z,1.80
2023-01-13T21:04:40.542Z,1.83
2023-01-13T21:07:08.174Z,1.90
2023-01-13T21:09:35.029Z,1.92
2023-01-13T21:12:20.602Z,1.45
2023-01-13T21:15:06.087Z,2.00
2023-01-13T21:17:51.343Z,1.90
2023-01-13T21:20:18.468Z,1.65
2023-01-13T21:22:46.819Z,1.90
2023-01-13T21:25:14.549Z,1.60
2023-01-13T21:27:43.821Z,1.90
2023-01-13T21:30:15.084Z,2.20
2023-01-13T21:32:43.606Z,2.28
2023-01-13T21:35:11.828Z,1.63
2023-01-13T21:37:39.983Z,2.08
2023-01-13T21:40:10.223Z,2.95
2023-01-13T21:42:55.851Z,2.50
2023-01-13T21:45:41.714Z,2.30
2023-01-13T21:48:08.817Z,2.05
2023-01-13T21:50:37.293Z,1.90
2023-01-13T21:53:04.509Z,2.13
2023-01-13T21:55:32.338Z,2.25
2023-01-13T21:58:11.690Z,2.22
2023-01-13T22:00:41.940Z,2.42
2023-01-13T22:03:09.911Z,2.10
2023-01-13T22:05:36.862Z,1.75
2023-01-13T22:08:04.127Z,1.98
2023-01-13T22:10:31.661Z,1.80
2023-01-13T22:13:20.648Z,1.90
2023-01-13T22:15:47.494Z,1.60
2023-01-13T22:18:14.281Z,2.20
2023-01-13T22:20:42.053Z,2.10
2023-01-13T22:23:08.753Z,2.13
2023-01-13T22:25:35.450Z,2.10
2023-01-13T22:28:05.985Z,1.85
2023-01-13T22:30:33.329Z,1.85
2023-01-13T22:33:00.729Z,1.75
2023-01-13T22:35:27.541Z,1.95
2023-01-13T22:37:54.246Z,2.22
2023-01-13T22:40:21.047Z,2.10
2023-01-13T22:42:47.866Z,2.05
2023-01-13T22:45:14.718Z,1.40
2023-01-13T22:47:41.501Z,2.03
2023-01-13T22:50:09.155Z,1.52
2023-01-13T22:52:35.850Z,1.73
2023-01-13T22:55:03.060Z,2.08
2023-01-13T22:57:36.083Z,1.60
2023-01-13T23:00:06.861Z,1.77
2023-01-13T23:02:34.612Z,1.88
2023-01-13T23:05:01.807Z,2.20
2023-01-13T23:07:28.838Z,1.60
2023-01-13T23:09:55.739Z,2.05
2023-01-13T23:12:22.727Z,1.98
2023-01-13T23:14:49.867Z,1.65
2023-01-13T23:17:16.695Z,1.42
2023-01-13T23:19:46.843Z,1.80
2023-01-13T23:22:13.597Z,1.90
2023-01-13T23:24:40.310Z,1.80
2023-01-13T23:27:07.202Z,1.63
2023-01-13T23:29:33.831Z,2.00
2023-01-13T23:32:00.532Z,1.67
2023-01-13T23:34:27.149Z,2.10
2023-01-13T23:36:53.803Z,1.50
2023-01-13T23:39:20.519Z,1.70
2023-01-13T23:41:47.389Z,1.95
2023-01-13T23:44:14.016Z,1.80
2023-01-13T23:46:40.846Z,1.95
2023-01-13T23:49:08.051Z,1.70
2023-01-13T23:51:34.801Z,1.70
2023-01-13T23:54:01.671Z,1.90
2023-01-13T23:56:31.100Z,1.70
